sensor_id;sensor_type;location;lat;lon;timestamp;P1;durP1;ratioP1;P2;durP2;ratioP2
78860;SDS011;68211;45.774;15.892;2023-08-21T00:00:20;42.53;;;31.73;;
78860;SDS011;68211;45.774;15.892;2023-08-21T00:02:46;44.17;;;32.15;;
78860;SDS011;68211;45.774;15.892;2023-08-21T00:05:13;40.92;;;29.92;;
78860;SDS011;68211;45.774;15.892;2023-08-21T00:07:41;46.28;;;30.35;;
78860;SDS011;68211;45.774;15.892;2023-08-21T00:10:08;39.40;;;31.17;;
78860;SDS011;68211;45.774;15.892;2023-08-21T00:12:34;41.88;;;29.25;;
78860;SDS011;68211;45.774;15.892;2023-08-21T00:15:02;39.67;;;28.98;;
78860;SDS011;68211;45.774;15.892;2023-08-21T00:17:28;40.28;;;29.25;;
78860;SDS011;68211;45.774;15.892;2023-08-21T00:19:55;39.10;;;28.58;;
78860;SDS011;68211;45.774;15.892;2023-08-21T00:22:21;35.47;;;29.10;;
78860;SDS011;68211;45.774;15.892;2023-08-21T00:24:49;38.47;;;28.15;;
78860;SDS011;68211;45.774;15.892;2023-08-21T00:27:15;39.13;;;28.23;;
78860;SDS011;68211;45.774;15.892;2023-08-21T00:29:42;36.45;;;29.08;;
78860;SDS011;68211;45.774;15.892;2023-08-21T00:32:08;40.42;;;30.77;;
78860;SDS011;68211;45.774;15.892;2023-08-21T00:34:35;43.08;;;30.42;;
78860;SDS011;68211;45.774;15.892;2023-08-21T00:37:01;46.55;;;31.25;;
78860;SDS011;68211;45.774;15.892;2023-08-21T00:39:28;43.08;;;30.80;;
78860;SDS011;68211;45.774;15.892;2023-08-21T00:41:56;38.78;;;30.35;;
78860;SDS011;68211;45.774;15.892;2023-08-21T00:44:22;44.58;;;32.17;;
78860;SDS011;68211;45.774;15.892;2023-08-21T00:46:49;40.45;;;32.08;;
78860;SDS011;68211;45.774;15.892;2023-08-21T00:49:15;47.67;;;33.00;;
78860;SDS011;68211;45.774;15.892;2023-08-21T00:51:42;43.40;;;34.58;;
78860;SDS011;68211;45.774;15.892;2023-08-21T00:54:08;52.35;;;37.55;;
78860;SDS011;68211;45.774;15.892;2023-08-21T00:56:35;47.45;;;37.60;;
78860;SDS011;68211;45.774;15.892;2023-08-21T00:59:03;49.20;;;37.65;;
78860;SDS011;68211;45.774;15.892;2023-08-21T01:01:29;50.38;;;38.28;;
78860;SDS011;68211;45.774;15.892;2023-08-21T01:03:56;53.55;;;41.17;;
78860;SDS011;68211;45.774;15.892;2023-08-21T01:06:22;53.38;;;37.92;;
78860;SDS011;68211;45.774;15.892;2023-08-21T01:08:50;51.33;;;38.78;;
78860;SDS011;68211;45.774;15.892;2023-08-21T01:11:21;58.03;;;39.15;;
78860;SDS011;68211;45.774;15.892;2023-08-21T01:13:49;48.35;;;38.92;;
78860;SDS011;68211;45.774;15.892;2023-08-21T01:16:22;49.65;;;37.38;;
78860;SDS011;68211;45.774;15.892;2023-08-21T01:18:49;50.70;;;37.53;;
78860;SDS011;68211;45.774;15.892;2023-08-21T01:21:16;56.55;;;37.50;;
78860;SDS011;68211;45.774;15.892;2023-08-21T01:23:45;50.35;;;36.22;;
78860;SDS011;68211;45.774;15.892;2023-08-21T01:26:11;49.67;;;39.60;;
78860;SDS011;68211;45.774;15.892;2023-08-21T01:28:38;45.88;;;36.10;;
78860;SDS011;68211;45.774;15.892;2023-08-21T01:31:06;46.13;;;34.97;;
78860;SDS011;68211;45.774;15.892;2023-08-21T01:33:33;44.40;;;34.40;;
78860;SDS011;68211;45.774;15.892;2023-08-21T01:36:02;56.75;;;34.08;;
78860;SDS011;68211;45.774;15.892;2023-08-21T01:38:29;47.45;;;34.08;;
78860;SDS011;68211;45.774;15.892;2023-08-21T01:40:57;47.88;;;35.50;;
78860;SDS011;68211;45.774;15.892;2023-08-21T01:43:23;45.95;;;35.05;;
78860;SDS011;68211;45.774;15.892;2023-08-21T01:45:50;49.35;;;34.72;;
78860;SDS011;68211;45.774;15.892;2023-08-21T01:48:16;52.50;;;35.42;;
78860;SDS011;68211;45.774;15.892;2023-08-21T01:50:43;55.10;;;37.67;;
78860;SDS011;68211;45.774;15.892;2023-08-21T01:53:09;58.33;;;36.70;;
78860;SDS011;68211;45.774;15.892;2023-08-21T01:55:36;49.15;;;36.63;;
78860;SDS011;68211;45.774;15.892;2023-08-21T01:58:04;48.13;;;33.08;;
78860;SDS011;68211;45.774;15.892;2023-08-21T02:00:31;48.17;;;35.42;;
78860;SDS011;68211;45.774;15.892;2023-08-21T02:02:57;43.20;;;34.70;;
78860;SDS011;68211;45.774;15.892;2023-08-21T02:05:24;46.75;;;35.40;;
78860;SDS011;68211;45.774;15.892;2023-08-21T02:07:51;53.88;;;34.95;;
78860;SDS011;68211;45.774;15.892;2023-08-21T02:10:17;48.65;;;34.83;;
78860;SDS011;68211;45.774;15.892;2023-08-21T02:12:44;51.30;;;36.20;;
78860;SDS011;68211;45.774;15.892;2023-08-21T02:15:12;54.20;;;35.10;;
78860;SDS011;68211;45.774;15.892;2023-08-21T02:17:39;46.88;;;34.75;;
78860;SDS011;68211;45.774;15.892;2023-08-21T02:20:06;47.35;;;34.33;;
78860;SDS011;68211;45.774;15.892;2023-08-21T02:22:33;51.17;;;35.85;;
78860;SDS011;68211;45.774;15.892;2023-08-21T02:25:01;46.70;;;33.30;;
78860;SDS011;68211;45.774;15.892;2023-08-21T02:27:27;57.00;;;35.57;;
78860;SDS011;68211;45.774;15.892;2023-08-21T02:29:54;44.90;;;33.78;;
78860;SDS011;68211;45.774;15.892;2023-08-21T02:32:22;46.05;;;33.17;;
78860;SDS011;68211;45.774;15.892;2023-08-21T02:34:48;46.85;;;33.88;;
78860;SDS011;68211;45.774;15.892;2023-08-21T02:37:15;49.28;;;33.75;;
78860;SDS011;68211;45.774;15.892;2023-08-21T02:39:41;50.50;;;34.63;;
78860;SDS011;68211;45.774;15.892;2023-08-21T02:42:08;43.67;;;34.05;;
78860;SDS011;68211;45.774;15.892;2023-08-21T02:44:34;47.60;;;34.53;;
78860;SDS011;68211;45.774;15.892;2023-08-21T02:47:01;45.83;;;34.90;;
78860;SDS011;68211;45.774;15.892;2023-08-21T02:49:29;50.60;;;34.53;;
78860;SDS011;68211;45.774;15.892;2023-08-21T02:51:55;55.28;;;36.53;;
78860;SDS011;68211;45.774;15.892;2023-08-21T02:54:22;44.08;;;35.65;;
78860;SDS011;68211;45.774;15.892;2023-08-21T02:56:48;45.45;;;35.42;;
78860;SDS011;68211;45.774;15.892;2023-08-21T02:59:15;55.08;;;38.38;;
78860;SDS011;68211;45.774;15.892;2023-08-21T03:01:41;50.47;;;35.72;;
78860;SDS011;68211;45.774;15.892;2023-08-21T03:04:08;52.15;;;37.90;;
78860;SDS011;68211;45.774;15.892;2023-08-21T03:06:36;52.78;;;37.63;;
78860;SDS011;68211;45.774;15.892;2023-08-21T03:09:03;50.83;;;36.25;;
78860;SDS011;68211;45.774;15.892;2023-08-21T03:11:29;51.80;;;35.55;;
78860;SDS011;68211;45.774;15.892;2023-08-21T03:13:56;54.97;;;37.28;;
78860;SDS011;68211;45.774;15.892;2023-08-21T03:16:22;55.08;;;39.28;;
78860;SDS011;68211;45.774;15.892;2023-08-21T03:18:55;51.65;;;39.42;;
78860;SDS011;68211;45.774;15.892;2023-08-21T03:21:22;54.65;;;40.40;;
78860;SDS011;68211;45.774;15.892;2023-08-21T03:23:51;56.58;;;40.15;;
78860;SDS011;68211;45.774;15.892;2023-08-21T03:26:18;53.22;;;39.55;;
78860;SDS011;68211;45.774;15.892;2023-08-21T03:28:44;54.90;;;39.15;;
78860;SDS011;68211;45.774;15.892;2023-08-21T03:31:11;60.40;;;41.83;;
78860;SDS011;68211;45.774;15.892;2023-08-21T03:33:37;52.80;;;39.03;;
78860;SDS011;68211;45.774;15.892;2023-08-21T03:36:04;54.38;;;38.15;;
78860;SDS011;68211;45.774;15.892;2023-08-21T03:38:30;53.63;;;37.95;;
78860;SDS011;68211;45.774;15.892;2023-08-21T03:40:58;62.80;;;37.67;;
78860;SDS011;68211;45.774;15.892;2023-08-21T03:43:25;56.50;;;39.25;;
78860;SDS011;68211;45.774;15.892;2023-08-21T03:45:51;52.28;;;37.83;;
78860;SDS011;68211;45.774;15.892;2023-08-21T03:48:18;57.58;;;40.13;;
78860;SDS011;68211;45.774;15.892;2023-08-21T03:50:45;61.15;;;39.63;;
78860;SDS011;68211;45.774;15.892;2023-08-21T03:53:11;51.85;;;38.25;;
78860;SDS011;68211;45.774;15.892;2023-08-21T03:55:38;53.83;;;36.72;;
78860;SDS011;68211;45.774;15.892;2023-08-21T03:58:06;49.67;;;37.10;;
78860;SDS011;68211;45.774;15.892;2023-08-21T04:00:32;58.83;;;38.05;;
78860;SDS011;68211;45.774;15.892;2023-08-21T04:02:59;54.75;;;37.78;;
78860;SDS011;68211;45.774;15.892;2023-08-21T04:05:25;51.78;;;36.35;;
78860;SDS011;68211;45.774;15.892;2023-08-21T04:07:52;59.10;;;39.47;;
78860;SDS011;68211;45.774;15.892;2023-08-21T04:10:19;46.40;;;36.28;;
78860;SDS011;68211;45.774;15.892;2023-08-21T04:12:45;58.92;;;38.38;;
78860;SDS011;68211;45.774;15.892;2023-08-21T04:15:13;44.70;;;36.22;;
78860;SDS011;68211;45.774;15.892;2023-08-21T04:17:39;55.28;;;36.35;;
78860;SDS011;68211;45.774;15.892;2023-08-21T04:20:07;49.85;;;37.03;;
78860;SDS011;68211;45.774;15.892;2023-08-21T04:22:33;47.92;;;36.55;;
78860;SDS011;68211;45.774;15.892;2023-08-21T04:25:00;54.25;;;36.60;;
78860;SDS011;68211;45.774;15.892;2023-08-21T04:27:26;47.72;;;35.85;;
78860;SDS011;68211;45.774;15.892;2023-08-21T04:29:53;52.72;;;36.55;;
78860;SDS011;68211;45.774;15.892;2023-08-21T04:32:21;52.97;;;36.72;;
78860;SDS011;68211;45.774;15.892;2023-08-21T04:34:48;51.53;;;37.65;;
78860;SDS011;68211;45.774;15.892;2023-08-21T04:37:14;50.78;;;36.83;;
78860;SDS011;68211;45.774;15.892;2023-08-21T04:39:41;62.22;;;38.70;;
78860;SDS011;68211;45.774;15.892;2023-08-21T04:42:07;57.95;;;36.47;;
78860;SDS011;68211;45.774;15.892;2023-08-21T04:44:34;56.00;;;37.58;;
78860;SDS011;68211;45.774;15.892;2023-08-21T04:49:43;47.10;;;36.75;;
78860;SDS011;68211;45.774;15.892;2023-08-21T04:52:10;53.85;;;35.88;;
78860;SDS011;68211;45.774;15.892;2023-08-21T04:54:36;56.58;;;37.30;;
78860;SDS011;68211;45.774;15.892;2023-08-21T04:57:03;47.15;;;36.13;;
78860;SDS011;68211;45.774;15.892;2023-08-21T04:59:30;54.30;;;36.58;;
78860;SDS011;68211;45.774;15.892;2023-08-21T05:01:56;52.05;;;35.33;;
78860;SDS011;68211;45.774;15.892;2023-08-21T05:04:23;50.15;;;35.08;;
78860;SDS011;68211;45.774;15.892;2023-08-21T05:06:51;48.80;;;35.58;;
78860;SDS011;68211;45.774;15.892;2023-08-21T05:09:17;49.00;;;36.20;;
78860;SDS011;68211;45.774;15.892;2023-08-21T05:11:44;49.13;;;34.90;;
78860;SDS011;68211;45.774;15.892;2023-08-21T05:14:11;46.72;;;34.63;;
78860;SDS011;68211;45.774;15.892;2023-08-21T05:16:37;47.70;;;34.85;;
78860;SDS011;68211;45.774;15.892;2023-08-21T05:19:04;48.15;;;35.30;;
78860;SDS011;68211;45.774;15.892;2023-08-21T05:21:31;49.45;;;35.03;;
78860;SDS011;68211;45.774;15.892;2023-08-21T05:23:59;61.38;;;35.40;;
78860;SDS011;68211;45.774;15.892;2023-08-21T05:26:25;54.55;;;34.22;;
78860;SDS011;68211;45.774;15.892;2023-08-21T05:28:52;52.85;;;34.65;;
78860;SDS011;68211;45.774;15.892;2023-08-21T05:31:19;46.53;;;34.28;;
78860;SDS011;68211;45.774;15.892;2023-08-21T05:33:45;50.20;;;34.95;;
78860;SDS011;68211;45.774;15.892;2023-08-21T05:36:12;50.67;;;33.53;;
78860;SDS011;68211;45.774;15.892;2023-08-21T05:38:38;50.60;;;34.67;;
78860;SDS011;68211;45.774;15.892;2023-08-21T05:41:06;49.10;;;34.58;;
78860;SDS011;68211;45.774;15.892;2023-08-21T05:43:33;55.17;;;35.25;;
78860;SDS011;68211;45.774;15.892;2023-08-21T05:45:59;44.55;;;35.05;;
78860;SDS011;68211;45.774;15.892;2023-08-21T05:48:26;51.20;;;34.70;;
78860;SDS011;68211;45.774;15.892;2023-08-21T05:50:52;54.30;;;34.65;;
78860;SDS011;68211;45.774;15.892;2023-08-21T05:53:19;50.35;;;34.92;;
78860;SDS011;68211;45.774;15.892;2023-08-21T05:55:45;47.80;;;33.65;;
78860;SDS011;68211;45.774;15.892;2023-08-21T05:58:13;50.70;;;34.00;;
78860;SDS011;68211;45.774;15.892;2023-08-21T06:00:40;51.97;;;34.87;;
78860;SDS011;68211;45.774;15.892;2023-08-21T06:03:07;49.55;;;34.70;;
78860;SDS011;68211;45.774;15.892;2023-08-21T06:05:33;49.90;;;34.22;;
78860;SDS011;68211;45.774;15.892;2023-08-21T06:08:00;48.03;;;35.08;;
78860;SDS011;68211;45.774;15.892;2023-08-21T06:10:26;49.42;;;34.70;;
78860;SDS011;68211;45.774;15.892;2023-08-21T06:12:53;46.35;;;35.22;;
78860;SDS011;68211;45.774;15.892;2023-08-21T06:15:21;50.38;;;34.08;;
78860;SDS011;68211;45.774;15.892;2023-08-21T06:17:47;44.75;;;33.58;;
78860;SDS011;68211;45.774;15.892;2023-08-21T06:20:14;53.25;;;34.63;;
78860;SDS011;68211;45.774;15.892;2023-08-21T06:22:40;52.17;;;34.33;;
78860;SDS011;68211;45.774;15.892;2023-08-21T06:25:08;54.30;;;33.35;;
78860;SDS011;68211;45.774;15.892;2023-08-21T06:27:35;48.42;;;33.90;;
78860;SDS011;68211;45.774;15.892;2023-08-21T06:30:17;47.83;;;34.88;;
78860;SDS011;68211;45.774;15.892;2023-08-21T06:32:45;43.42;;;33.47;;
78860;SDS011;68211;45.774;15.892;2023-08-21T06:35:12;54.53;;;33.50;;
78860;SDS011;68211;45.774;15.892;2023-08-21T06:37:38;57.92;;;34.80;;
78860;SDS011;68211;45.774;15.892;2023-08-21T06:40:08;47.50;;;33.17;;
78860;SDS011;68211;45.774;15.892;2023-08-21T06:42:35;47.35;;;33.35;;
78860;SDS011;68211;45.774;15.892;2023-08-21T06:45:03;49.30;;;34.30;;
78860;SDS011;68211;45.774;15.892;2023-08-21T06:47:29;55.10;;;34.13;;
78860;SDS011;68211;45.774;15.892;2023-08-21T06:49:57;52.13;;;34.63;;
78860;SDS011;68211;45.774;15.892;2023-08-21T06:52:24;45.25;;;34.08;;
78860;SDS011;68211;45.774;15.892;2023-08-21T06:54:50;45.35;;;33.47;;
78860;SDS011;68211;45.774;15.892;2023-08-21T06:57:17;57.97;;;33.53;;
78860;SDS011;68211;45.774;15.892;2023-08-21T06:59:44;66.72;;;36.20;;
78860;SDS011;68211;45.774;15.892;2023-08-21T07:02:10;56.10;;;35.42;;
78860;SDS011;68211;45.774;15.892;2023-08-21T07:04:37;50.85;;;34.78;;
78860;SDS011;68211;45.774;15.892;2023-08-21T07:07:05;53.80;;;36.88;;
78860;SDS011;68211;45.774;15.892;2023-08-21T07:09:31;48.80;;;34.72;;
78860;SDS011;68211;45.774;15.892;2023-08-21T07:11:58;53.97;;;36.20;;
78860;SDS011;68211;45.774;15.892;2023-08-21T07:14:25;50.70;;;34.88;;
78860;SDS011;68211;45.774;15.892;2023-08-21T07:16:52;51.38;;;35.67;;
78860;SDS011;68211;45.774;15.892;2023-08-21T07:19:19;52.40;;;35.35;;
78860;SDS011;68211;45.774;15.892;2023-08-21T07:21:49;64.40;;;36.40;;
78860;SDS011;68211;45.774;15.892;2023-08-21T07:27:14;47.55;;;35.95;;
78860;SDS011;68211;45.774;15.892;2023-08-21T07:29:53;57.22;;;35.72;;
78860;SDS011;68211;45.774;15.892;2023-08-21T07:32:40;48.80;;;34.03;;
78860;SDS011;68211;45.774;15.892;2023-08-21T07:38:21;53.75;;;35.63;;
78860;SDS011;68211;45.774;15.892;2023-08-21T07:41:29;51.10;;;33.17;;
78860;SDS011;68211;45.774;15.892;2023-08-21T07:43:45;57.28;;;34.63;;
78860;SDS011;68211;45.774;15.892;2023-08-21T07:46:28;54.45;;;35.05;;
78860;SDS011;68211;45.774;15.892;2023-08-21T07:49:00;51.25;;;35.80;;
78860;SDS011;68211;45.774;15.892;2023-08-21T07:51:26;60.75;;;34.60;;
78860;SDS011;68211;45.774;15.892;2023-08-21T07:53:55;50.40;;;34.30;;
78860;SDS011;68211;45.774;15.892;2023-08-21T07:56:26;49.22;;;34.05;;
78860;SDS011;68211;45.774;15.892;2023-08-21T07:58:55;46.75;;;33.10;;
78860;SDS011;68211;45.774;15.892;2023-08-21T08:01:41;47.83;;;32.70;;
78860;SDS011;68211;45.774;15.892;2023-08-21T08:04:07;55.95;;;33.65;;
78860;SDS011;68211;45.774;15.892;2023-08-21T08:06:34;44.22;;;31.27;;
78860;SDS011;68211;45.774;15.892;2023-08-21T08:09:06;46.78;;;31.73;;
78860;SDS011;68211;45.774;15.892;2023-08-21T08:11:38;46.30;;;30.77;;
78860;SDS011;68211;45.774;15.892;2023-08-21T08:14:19;39.05;;;30.52;;
78860;SDS011;68211;45.774;15.892;2023-08-21T08:16:48;40.97;;;30.85;;
78860;SDS011;68211;45.774;15.892;2023-08-21T08:19:27;46.05;;;29.83;;
78860;SDS011;68211;45.774;15.892;2023-08-21T08:21:54;39.97;;;28.67;;
78860;SDS011;68211;45.774;15.892;2023-08-21T08:24:36;51.58;;;29.50;;
78860;SDS011;68211;45.774;15.892;2023-08-21T08:27:10;44.42;;;28.65;;
78860;SDS011;68211;45.774;15.892;2023-08-21T08:29:44;50.63;;;29.13;;
78860;SDS011;68211;45.774;15.892;2023-08-21T08:33:04;44.75;;;29.52;;
78860;SDS011;68211;45.774;15.892;2023-08-21T08:35:44;40.53;;;27.98;;
78860;SDS011;68211;45.774;15.892;2023-08-21T08:41:54;36.15;;;26.35;;
78860;SDS011;68211;45.774;15.892;2023-08-21T08:44:10;45.97;;;29.00;;
78860;SDS011;68211;45.774;15.892;2023-08-21T08:46:53;37.65;;;27.30;;
78860;SDS011;68211;45.774;15.892;2023-08-21T08:49:38;37.22;;;26.77;;
78860;SDS011;68211;45.774;15.892;2023-08-21T08:52:11;35.30;;;26.75;;
78860;SDS011;68211;45.774;15.892;2023-08-21T08:54:53;38.33;;;28.30;;
78860;SDS011;68211;45.774;15.892;2023-08-21T08:57:30;46.17;;;27.35;;
78860;SDS011;68211;45.774;15.892;2023-08-21T09:00:02;38.45;;;26.77;;
78860;SDS011;68211;45.774;15.892;2023-08-21T09:02:45;36.55;;;27.08;;
78860;SDS011;68211;45.774;15.892;2023-08-21T09:05:13;33.85;;;28.23;;
78860;SDS011;68211;45.774;15.892;2023-08-21T09:13:36;39.88;;;25.88;;
78860;SDS011;68211;45.774;15.892;2023-08-21T09:16:19;44.72;;;26.73;;
78860;SDS011;68211;45.774;15.892;2023-08-21T09:18:55;46.08;;;25.63;;
78860;SDS011;68211;45.774;15.892;2023-08-21T09:21:28;38.58;;;25.50;;
78860;SDS011;68211;45.774;15.892;2023-08-21T09:24:01;36.25;;;24.55;;
78860;SDS011;68211;45.774;15.892;2023-08-21T09:29:42;32.17;;;23.27;;
78860;SDS011;68211;45.774;15.892;2023-08-21T09:32:17;35.88;;;24.13;;
78860;SDS011;68211;45.774;15.892;2023-08-21T09:37:38;36.38;;;22.88;;
78860;SDS011;68211;45.774;15.892;2023-08-21T09:40:22;32.42;;;22.83;;
78860;SDS011;68211;45.774;15.892;2023-08-21T09:42:57;29.95;;;21.60;;
78860;SDS011;68211;45.774;15.892;2023-08-21T09:45:25;33.97;;;21.80;;
78860;SDS011;68211;45.774;15.892;2023-08-21T09:47:56;31.48;;;22.33;;
78860;SDS011;68211;45.774;15.892;2023-08-21T09:50:24;26.65;;;21.33;;
78860;SDS011;68211;45.774;15.892;2023-08-21T09:52:59;41.72;;;21.85;;
78860;SDS011;68211;45.774;15.892;2023-08-21T09:55:27;33.95;;;21.63;;
78860;SDS011;68211;45.774;15.892;2023-08-21T09:58:04;31.83;;;22.13;;
78860;SDS011;68211;45.774;15.892;2023-08-21T10:00:50;35.30;;;22.88;;
78860;SDS011;68211;45.774;15.892;2023-08-21T10:03:25;35.33;;;21.42;;
78860;SDS011;68211;45.774;15.892;2023-08-21T10:08:53;30.30;;;21.27;;
78860;SDS011;68211;45.774;15.892;2023-08-21T10:11:31;31.80;;;22.20;;
78860;SDS011;68211;45.774;15.892;2023-08-21T10:14:14;35.85;;;22.05;;
78860;SDS011;68211;45.774;15.892;2023-08-21T10:16:47;38.13;;;20.88;;
78860;SDS011;68211;45.774;15.892;2023-08-21T10:19:24;33.47;;;22.23;;
78860;SDS011;68211;45.774;15.892;2023-08-21T10:22:05;31.10;;;21.75;;
78860;SDS011;68211;45.774;15.892;2023-08-21T10:25:01;35.35;;;22.10;;
78860;SDS011;68211;45.774;15.892;2023-08-21T10:27:40;35.90;;;24.30;;
78860;SDS011;68211;45.774;15.892;2023-08-21T10:30:36;36.65;;;23.67;;
78860;SDS011;68211;45.774;15.892;2023-08-21T10:33:14;37.67;;;22.38;;
78860;SDS011;68211;45.774;15.892;2023-08-21T10:36:00;32.03;;;22.30;;
78860;SDS011;68211;45.774;15.892;2023-08-21T10:42:11;38.00;;;23.23;;
78860;SDS011;68211;45.774;15.892;2023-08-21T10:48:26;39.53;;;23.73;;
78860;SDS011;68211;45.774;15.892;2023-08-21T12:30:00;38.13;;;23.65;;
78860;SDS011;68211;45.774;15.892;2023-08-21T12:33:10;40.05;;;23.65;;
78860;SDS011;68211;45.774;15.892;2023-08-21T12:39:55;38.50;;;25.77;;
78860;SDS011;68211;45.774;15.892;2023-08-21T12:42:12;36.67;;;24.90;;
78860;SDS011;68211;45.774;15.892;2023-08-21T12:51:15;33.38;;;24.75;;
78860;SDS011;68211;45.774;15.892;2023-08-21T12:55:56;32.53;;;24.48;;
78860;SDS011;68211;45.774;15.892;2023-08-21T12:56:36;36.10;;;23.90;;
78860;SDS011;68211;45.774;15.892;2023-08-21T12:59:03;34.22;;;24.17;;
78860;SDS011;68211;45.774;15.892;2023-08-21T13:01:33;33.13;;;24.42;;
78860;SDS011;68211;45.774;15.892;2023-08-21T13:04:02;35.45;;;23.63;;
78860;SDS011;68211;45.774;15.892;2023-08-21T13:06:53;46.80;;;24.92;;
78860;SDS011;68211;45.774;15.892;2023-08-21T13:09:27;43.20;;;23.58;;
78860;SDS011;68211;45.774;15.892;2023-08-21T13:11:58;35.10;;;22.85;;
78860;SDS011;68211;45.774;15.892;2023-08-21T13:14:27;39.38;;;23.33;;
78860;SDS011;68211;45.774;15.892;2023-08-21T13:16:58;44.30;;;22.92;;
78860;SDS011;68211;45.774;15.892;2023-08-21T13:19:27;36.42;;;23.23;;
78860;SDS011;68211;45.774;15.892;2023-08-21T13:22:15;37.55;;;23.15;;
78860;SDS011;68211;45.774;15.892;2023-08-21T13:24:58;35.85;;;22.75;;
78860;SDS011;68211;45.774;15.892;2023-08-21T13:27:26;33.22;;;22.05;;
78860;SDS011;68211;45.774;15.892;2023-08-21T13:29:58;33.90;;;22.35;;
78860;SDS011;68211;45.774;15.892;2023-08-21T13:32:25;53.67;;;21.35;;
78860;SDS011;68211;45.774;15.892;2023-08-21T13:34:51;32.60;;;21.85;;
78860;SDS011;68211;45.774;15.892;2023-08-21T13:37:22;34.88;;;22.60;;
78860;SDS011;68211;45.774;15.892;2023-08-21T13:39:49;38.05;;;21.50;;
78860;SDS011;68211;45.774;15.892;2023-08-21T13:42:16;30.75;;;21.40;;
78860;SDS011;68211;45.774;15.892;2023-08-21T13:44:42;32.92;;;22.13;;
78860;SDS011;68211;45.774;15.892;2023-08-21T16:00:07;31.40;;;18.10;;
78860;SDS011;68211;45.774;15.892;2023-08-21T16:02:46;25.27;;;17.27;;
78860;SDS011;68211;45.774;15.892;2023-08-21T16:05:16;25.63;;;17.92;;
78860;SDS011;68211;45.774;15.892;2023-08-21T16:07:54;26.15;;;16.75;;
78860;SDS011;68211;45.774;15.892;2023-08-21T16:10:23;26.60;;;18.98;;
78860;SDS011;68211;45.774;15.892;2023-08-21T16:12:52;23.02;;;17.58;;
78860;SDS011;68211;45.774;15.892;2023-08-21T16:15:21;31.45;;;18.52;;
78860;SDS011;68211;45.774;15.892;2023-08-21T16:17:49;33.78;;;18.25;;
78860;SDS011;68211;45.774;15.892;2023-08-21T16:20:17;31.02;;;19.20;;
78860;SDS011;68211;45.774;15.892;2023-08-21T16:22:44;22.95;;;18.30;;
78860;SDS011;68211;45.774;15.892;2023-08-21T16:25:17;30.90;;;18.95;;
78860;SDS011;68211;45.774;15.892;2023-08-21T16:27:47;41.88;;;19.48;;
78860;SDS011;68211;45.774;15.892;2023-08-21T16:30:17;29.70;;;18.70;;
78860;SDS011;68211;45.774;15.892;2023-08-21T16:32:45;32.40;;;19.35;;
78860;SDS011;68211;45.774;15.892;2023-08-21T16:35:13;34.40;;;19.48;;
78860;SDS011;68211;45.774;15.892;2023-08-21T16:37:42;36.60;;;19.98;;
78860;SDS011;68211;45.774;15.892;2023-08-21T16:40:13;32.47;;;19.60;;
78860;SDS011;68211;45.774;15.892;2023-08-21T16:42:40;34.20;;;19.60;;
78860;SDS011;68211;45.774;15.892;2023-08-21T16:45:08;33.22;;;20.10;;
78860;SDS011;68211;45.774;15.892;2023-08-21T16:47:35;31.98;;;19.95;;
78860;SDS011;68211;45.774;15.892;2023-08-21T16:50:06;29.45;;;20.35;;
78860;SDS011;68211;45.774;15.892;2023-08-21T16:52:33;30.08;;;19.88;;
78860;SDS011;68211;45.774;15.892;2023-08-21T16:55:00;33.33;;;21.50;;
78860;SDS011;68211;45.774;15.892;2023-08-21T16:57:29;29.38;;;20.70;;
78860;SDS011;68211;45.774;15.892;2023-08-21T16:59:56;34.75;;;20.45;;
78860;SDS011;68211;45.774;15.892;2023-08-21T17:02:31;32.38;;;20.52;;
78860;SDS011;68211;45.774;15.892;2023-08-21T17:04:59;25.08;;;19.08;;
78860;SDS011;68211;45.774;15.892;2023-08-21T17:07:37;38.78;;;22.33;;
78860;SDS011;68211;45.774;15.892;2023-08-21T17:10:05;31.67;;;20.25;;
78860;SDS011;68211;45.774;15.892;2023-08-21T17:12:33;29.92;;;20.52;;
78860;SDS011;68211;45.774;15.892;2023-08-21T17:17:58;33.55;;;21.30;;
78860;SDS011;68211;45.774;15.892;2023-08-21T17:20:34;36.53;;;20.60;;
78860;SDS011;68211;45.774;15.892;2023-08-21T17:29:36;33.55;;;22.40;;
78860;SDS011;68211;45.774;15.892;2023-08-21T17:32:16;39.65;;;22.27;;
78860;SDS011;68211;45.774;15.892;2023-08-21T17:34:49;32.85;;;21.70;;
78860;SDS011;68211;45.774;15.892;2023-08-21T17:37:28;31.17;;;19.90;;
78860;SDS011;68211;45.774;15.892;2023-08-21T17:39:58;34.05;;;20.85;;
78860;SDS011;68211;45.774;15.892;2023-08-21T17:42:25;37.42;;;24.20;;
78860;SDS011;68211;45.774;15.892;2023-08-21T17:44:54;32.53;;;23.10;;
78860;SDS011;68211;45.774;15.892;2023-08-21T17:49:47;46.65;;;24.40;;
78860;SDS011;68211;45.774;15.892;2023-08-21T17:52:14;40.70;;;24.30;;
78860;SDS011;68211;45.774;15.892;2023-08-21T17:54:41;46.92;;;24.40;;
78860;SDS011;68211;45.774;15.892;2023-08-21T17:57:07;49.88;;;25.85;;
78860;SDS011;68211;45.774;15.892;2023-08-21T17:59:34;58.03;;;25.65;;
78860;SDS011;68211;45.774;15.892;2023-08-21T18:02:02;48.97;;;25.27;;
78860;SDS011;68211;45.774;15.892;2023-08-21T18:04:29;47.53;;;26.85;;
78860;SDS011;68211;45.774;15.892;2023-08-21T18:06:55;46.55;;;24.27;;
78860;SDS011;68211;45.774;15.892;2023-08-21T18:09:22;45.15;;;23.75;;
78860;SDS011;68211;45.774;15.892;2023-08-21T18:11:49;42.53;;;23.33;;
78860;SDS011;68211;45.774;15.892;2023-08-21T18:14:15;40.00;;;24.42;;
78860;SDS011;68211;45.774;15.892;2023-08-21T18:16:42;39.40;;;24.98;;
78860;SDS011;68211;45.774;15.892;2023-08-21T18:19:10;38.38;;;25.27;;
78860;SDS011;68211;45.774;15.892;2023-08-21T18:21:36;47.47;;;24.63;;
78860;SDS011;68211;45.774;15.892;2023-08-21T18:24:03;39.35;;;24.98;;
78860;SDS011;68211;45.774;15.892;2023-08-21T18:26:30;40.60;;;25.50;;
78860;SDS011;68211;45.774;15.892;2023-08-21T18:28:56;41.75;;;26.48;;
78860;SDS011;68211;45.774;15.892;2023-08-21T18:31:23;49.97;;;27.45;;
78860;SDS011;68211;45.774;15.892;2023-08-21T18:33:53;44.90;;;26.10;;
78860;SDS011;68211;45.774;15.892;2023-08-21T18:36:21;35.85;;;25.58;;
78860;SDS011;68211;45.774;15.892;2023-08-21T18:38:47;39.70;;;25.70;;
78860;SDS011;68211;45.774;15.892;2023-08-21T18:41:14;43.55;;;26.63;;
78860;SDS011;68211;45.774;15.892;2023-08-21T18:43:40;36.80;;;24.90;;
78860;SDS011;68211;45.774;15.892;2023-08-21T18:46:07;33.30;;;23.95;;
78860;SDS011;68211;45.774;15.892;2023-08-21T18:48:34;43.33;;;25.58;;
78860;SDS011;68211;45.774;15.892;2023-08-21T18:51:00;46.42;;;25.75;;
78860;SDS011;68211;45.774;15.892;2023-08-21T18:53:28;52.05;;;25.88;;
78860;SDS011;68211;45.774;15.892;2023-08-21T18:55:55;40.23;;;23.33;;
78860;SDS011;68211;45.774;15.892;2023-08-21T18:58:22;35.65;;;24.95;;
78860;SDS011;68211;45.774;15.892;2023-08-21T19:00:48;39.13;;;24.25;;
78860;SDS011;68211;45.774;15.892;2023-08-21T19:03:15;39.42;;;25.00;;
78860;SDS011;68211;45.774;15.892;2023-08-21T19:05:41;37.67;;;26.10;;
78860;SDS011;68211;45.774;15.892;2023-08-21T19:08:08;45.60;;;27.65;;
78860;SDS011;68211;45.774;15.892;2023-08-21T19:10:36;37.08;;;26.00;;